Aeroporto :
LOGIN :

Iscrizione | Disclaimer

   EN    FR    IT 

 










Sommario :    VFR   VFR Marginale   IFR   IFR Intensivo   IFR Molto Intensivo
Visibilità : 
Base nubi : 
>= 8 km
>= 3000ft
5 / 8 km
1000 / 3000 ft
1500m / 5 km
500 / 1000 ft
800 / 1500m
200 / 500 ft
< 800m
< 200 ft
Simboli :   Temporali  Nebbia  Neve Forte  Precipitazioni Forti  Vento > 20 kt
SIGMETs :   Varie  Temporali  Ghiacco  Turbolenza  Onda orograficha  Ceneri Vulcaniche






- Altitudine del aeroporto : 181 ft


ESIB - Satenas AB

ULTIMO METAR :
  • 072220Z AUTO 21007KT 9999 NCD 00/M01 Q0997

METARs OBSOLETI :
  • 072150Z AUTO 18006KT 9999 NCD 01/M01 Q0997
  • 072120Z AUTO 23008KT 9999 NCD 02/M00 Q0997
  • 072050Z AUTO 24008KT 9999 NCD 02/M00 Q0997
  • 072020Z AUTO 25009KT 9999 NCD 02/M00 Q0997
  • 071950Z AUTO 27007KT 9999 NCD 02/M00 Q0996
  • 071920Z AUTO 24007KT 9999 NCD 02/M00 Q0996

Previsioni scadute.



MetMap, La meteo Aeronautica in un colpo d'occhio ! - Copyright ORBIFLY Dicembre 2007 - Disclaimer

ORBIFLY MET'MAP TEAM :

Programmazione e sviluppo : Alexandra Zaïnal
Concezione : Baudouin d'Aumeries
Aiuto per la programmazione : Marc-Olivier Méhu
Supporto tecnico e logistico : Manuel Goepfert
Aiuto per la traduzione : Arnaldo La Scala

Contatto : metmap@orbifly.com




FONTI E CREDITI :

   NOAA